createdAt,value
2023-10-22T00:00:49.866Z,16.77
2023-10-22T00:03:19.627Z,16.75
2023-10-22T00:05:47.034Z,16.76
2023-10-22T00:08:14.098Z,16.77
2023-10-22T00:10:41.108Z,16.83
2023-10-22T00:13:08.391Z,16.85
2023-10-22T00:15:35.666Z,16.81
2023-10-22T00:18:03.027Z,16.82
2023-10-22T00:20:31.732Z,16.81
2023-10-22T00:22:59.041Z,16.87
2023-10-22T00:25:26.054Z,16.90
2023-10-22T00:27:53.149Z,16.95
2023-10-22T00:30:20.265Z,16.95
2023-10-22T00:32:48.150Z,16.95
2023-10-22T00:35:15.390Z,16.93
2023-10-22T00:37:42.378Z,16.92
2023-10-22T00:40:09.869Z,16.93
2023-10-22T00:42:36.932Z,16.90
2023-10-22T00:45:05.112Z,16.90
2023-10-22T00:47:34.943Z,16.93
2023-10-22T00:50:04.019Z,16.96
2023-10-22T00:52:33.074Z,16.98
2023-10-22T00:55:01.423Z,16.99
2023-10-22T00:57:31.296Z,16.97
2023-10-22T00:59:58.450Z,16.97
2023-10-22T01:02:25.622Z,16.98
2023-10-22T01:04:52.750Z,16.98
2023-10-22T01:07:20.637Z,16.99
2023-10-22T01:09:47.775Z,16.99
2023-10-22T01:12:16.383Z,16.98
2023-10-22T01:14:43.659Z,16.96
2023-10-22T01:17:10.978Z,16.96
2023-10-22T01:19:38.410Z,16.96
2023-10-22T01:22:05.511Z,16.96
2023-10-22T01:24:34.328Z,17.01
2023-10-22T01:27:01.558Z,17.02
2023-10-22T01:29:28.659Z,16.97
2023-10-22T01:31:55.726Z,16.92
2023-10-22T01:34:23.068Z,16.89
2023-10-22T01:36:50.197Z,16.86
2023-10-22T01:39:18.970Z,16.85
2023-10-22T01:41:46.231Z,16.86
2023-10-22T01:44:13.479Z,16.87
2023-10-22T01:46:40.804Z,16.85
2023-10-22T01:49:08.017Z,16.84
2023-10-22T01:51:35.148Z,16.81
2023-10-22T01:54:02.665Z,16.77
2023-10-22T01:56:29.850Z,16.60
2023-10-22T01:58:57.351Z,16.54
2023-10-22T02:01:26.852Z,16.53
2023-10-22T02:03:54.186Z,16.53
2023-10-22T02:06:21.350Z,16.53
2023-10-22T02:08:48.584Z,16.52
2023-10-22T02:11:15.879Z,16.53
2023-10-22T02:13:43.226Z,16.53
2023-10-22T02:16:10.817Z,16.49
2023-10-22T02:18:38.094Z,16.48
2023-10-22T02:21:06.111Z,16.40
2023-10-22T02:23:33.401Z,16.32
2023-10-22T02:26:00.565Z,16.31
2023-10-22T02:28:27.708Z,16.17
2023-10-22T02:30:54.810Z,16.10
2023-10-22T02:33:22.020Z,16.14
2023-10-22T02:35:49.218Z,16.20
2023-10-22T02:38:17.443Z,16.25
2023-10-22T02:40:49.848Z,16.27
2023-10-22T02:43:18.051Z,16.30
2023-10-22T02:45:52.377Z,16.25
2023-10-22T02:48:20.225Z,16.19
2023-10-22T02:50:47.833Z,16.26
2023-10-22T02:53:15.456Z,16.31
2023-10-22T02:55:42.751Z,16.29
2023-10-22T02:58:10.384Z,16.32
2023-10-22T03:00:37.929Z,16.35
2023-10-22T03:03:05.645Z,16.37
2023-10-22T03:05:37.762Z,16.41
2023-10-22T03:08:05.961Z,16.43
2023-10-22T03:10:36.900Z,16.41
2023-10-22T03:13:04.288Z,16.44
2023-10-22T03:15:31.833Z,16.48
2023-10-22T03:17:58.983Z,16.49
2023-10-22T03:20:26.508Z,16.47
2023-10-22T03:22:56.697Z,16.47
2023-10-22T03:25:24.286Z,16.45
2023-10-22T03:27:51.449Z,16.44
2023-10-22T03:30:18.778Z,16.39
2023-10-22T03:32:46.498Z,16.42
2023-10-22T03:35:14.626Z,16.43
2023-10-22T03:37:42.574Z,16.37
2023-10-22T03:40:11.380Z,16.37
2023-10-22T03:42:38.750Z,16.31
2023-10-22T03:45:07.828Z,16.29
2023-10-22T03:47:34.964Z,16.28
2023-10-22T03:50:02.519Z,16.29
2023-10-22T03:52:31.263Z,16.22
2023-10-22T03:54:58.691Z,16.21
2023-10-22T03:57:26.437Z,16.23
2023-10-22T03:59:53.654Z,16.25
2023-10-22T04:02:20.917Z,16.27
2023-10-22T04:04:48.313Z,16.28
2023-10-22T04:07:15.388Z,16.23
2023-10-22T04:09:42.746Z,16.20
2023-10-22T04:12:10.775Z,16.13
2023-10-22T04:14:38.152Z,16.10
2023-10-22T04:17:05.278Z,16.09
2023-10-22T04:19:32.807Z,16.12
2023-10-22T04:21:59.824Z,16.14
2023-10-22T04:24:29.061Z,16.17
2023-10-22T04:26:57.580Z,16.13
2023-10-22T04:29:25.211Z,16.11
2023-10-22T04:31:52.220Z,16.09
2023-10-22T04:34:19.622Z,15.99
2023-10-22T04:36:46.747Z,15.98
2023-10-22T04:39:13.915Z,16.00
2023-10-22T04:41:41.239Z,16.03
2023-10-22T04:44:08.640Z,16.00
2023-10-22T04:46:35.676Z,15.97
2023-10-22T04:49:02.925Z,16.00
2023-10-22T04:51:30.497Z,16.00
2023-10-22T04:53:57.813Z,16.04
2023-10-22T04:56:25.026Z,16.05
2023-10-22T04:58:51.986Z,16.07
2023-10-22T05:01:19.034Z,16.05
2023-10-22T05:03:46.393Z,16.03
2023-10-22T05:06:13.663Z,16.05
2023-10-22T05:08:41.449Z,16.05
2023-10-22T05:11:15.544Z,16.07
2023-10-22T05:13:47.413Z,15.98
2023-10-22T05:16:14.950Z,16.00
2023-10-22T05:18:42.184Z,15.99
2023-10-22T05:21:10.693Z,15.90
2023-10-22T05:23:38.141Z,15.83
2023-10-22T05:26:16.406Z,15.79
2023-10-22T05:28:45.175Z,15.82
2023-10-22T05:31:16.894Z,15.83
2023-10-22T05:33:44.783Z,15.84
2023-10-22T05:36:20.237Z,15.82
2023-10-22T05:38:48.704Z,15.84
2023-10-22T05:41:27.185Z,15.83
2023-10-22T05:44:02.027Z,15.87
2023-10-22T05:46:33.446Z,15.89
2023-10-22T05:49:01.541Z,15.87
2023-10-22T05:51:28.561Z,15.85
2023-10-22T05:53:55.824Z,15.83
2023-10-22T05:56:24.934Z,15.82
2023-10-22T05:58:52.292Z,15.80
2023-10-22T06:01:19.435Z,15.78
2023-10-22T06:03:48.226Z,15.76
2023-10-22T06:06:22.751Z,15.77
2023-10-22T06:08:50.313Z,15.81
2023-10-22T06:11:17.403Z,15.77
2023-10-22T06:13:44.524Z,15.68
2023-10-22T06:16:11.747Z,15.74
2023-10-22T06:18:39.346Z,15.77
2023-10-22T06:21:17.428Z,15.79
2023-10-22T06:23:45.152Z,15.79
2023-10-22T06:26:13.524Z,15.75
2023-10-22T06:28:41.405Z,15.75
2023-10-22T06:31:13.416Z,15.76
2023-10-22T06:33:42.157Z,15.80
2023-10-22T06:36:20.032Z,15.81
2023-10-22T06:38:48.828Z,15.86
2023-10-22T06:41:22.567Z,15.91
2023-10-22T06:43:50.285Z,15.94
2023-10-22T06:46:20.656Z,15.95
2023-10-22T06:48:49.258Z,16.00
2023-10-22T06:51:17.772Z,16.04
2023-10-22T06:53:48.134Z,16.06
2023-10-22T06:56:16.699Z,16.08
2023-10-22T06:58:46.564Z,16.13
2023-10-22T07:01:15.638Z,16.16
2023-10-22T07:03:47.715Z,16.20
2023-10-22T07:06:16.274Z,16.29
2023-10-22T07:08:44.808Z,16.34
2023-10-22T07:11:12.706Z,16.47
2023-10-22T07:13:40.151Z,16.57
2023-10-22T07:16:08.291Z,16.67
2023-10-22T07:18:35.861Z,16.73
2023-10-22T07:21:03.034Z,16.79
2023-10-22T07:23:32.834Z,16.81
2023-10-22T07:26:00.783Z,16.89
2023-10-22T07:28:28.353Z,16.93
2023-10-22T07:30:56.562Z,17.05
2023-10-22T07:33:26.265Z,17.18
2023-10-22T07:36:01.580Z,17.23
2023-10-22T07:38:33.905Z,17.24
2023-10-22T07:41:07.029Z,17.27
2023-10-22T07:43:34.200Z,17.32
2023-10-22T07:46:02.201Z,17.31
2023-10-22T07:48:29.621Z,17.35
2023-10-22T07:51:07.910Z,17.45
2023-10-22T07:53:35.036Z,17.56
2023-10-22T07:56:02.140Z,17.58
2023-10-22T07:58:29.277Z,17.59
2023-10-22T08:00:56.379Z,17.61
2023-10-22T08:03:24.361Z,17.62
2023-10-22T08:05:52.985Z,17.67
2023-10-22T08:08:20.028Z,17.71
2023-10-22T08:10:47.322Z,17.73
2023-10-22T08:13:14.578Z,17.79
2023-10-22T08:15:41.771Z,17.78
2023-10-22T08:18:08.914Z,17.79
2023-10-22T08:20:36.655Z,17.80
2023-10-22T08:23:05.802Z,17.83
2023-10-22T08:25:33.060Z,17.87
2023-10-22T08:28:00.304Z,17.88
2023-10-22T08:30:28.512Z,17.92
2023-10-22T08:32:56.043Z,17.98
2023-10-22T08:35:24.688Z,18.03
2023-10-22T08:37:51.700Z,18.09
2023-10-22T08:40:18.750Z,18.13
2023-10-22T08:42:47.220Z,18.20
2023-10-22T08:45:14.325Z,18.27
2023-10-22T08:47:41.424Z,18.30
2023-10-22T08:50:12.834Z,18.34
2023-10-22T08:52:40.753Z,18.44
2023-10-22T08:55:09.396Z,18.52
2023-10-22T08:57:41.729Z,18.58
2023-10-22T09:00:11.667Z,18.63
2023-10-22T09:02:38.783Z,18.66
2023-10-22T09:05:07.611Z,18.71
2023-10-22T09:07:54.984Z,18.86
2023-10-22T09:10:26.983Z,18.98
2023-10-22T09:12:54.475Z,18.99
2023-10-22T09:15:21.837Z,18.97
2023-10-22T09:18:01.866Z,18.95
2023-10-22T09:20:31.084Z,19.01
2023-10-22T09:23:18.900Z,19.11
2023-10-22T09:25:48.718Z,19.05
2023-10-22T09:28:19.130Z,19.09
2023-10-22T09:31:00.552Z,19.16
2023-10-22T09:33:36.892Z,19.28
2023-10-22T09:36:13.226Z,19.30
2023-10-22T09:38:44.455Z,19.29
2023-10-22T09:41:13.657Z,19.35
2023-10-22T09:43:42.785Z,19.32
2023-10-22T09:46:13.287Z,19.37
2023-10-22T09:48:41.924Z,19.38
2023-10-22T09:51:11.650Z,19.42
2023-10-22T09:53:41.394Z,19.49
2023-10-22T09:56:08.933Z,19.56
2023-10-22T09:58:45.382Z,19.60
2023-10-22T10:01:14.689Z,19.56
2023-10-22T10:03:43.755Z,19.57
2023-10-22T10:06:11.306Z,19.57
2023-10-22T10:08:40.545Z,19.56
2023-10-22T10:11:13.135Z,19.49
2023-10-22T10:13:41.330Z,19.45
2023-10-22T10:16:08.809Z,19.46
2023-10-22T10:19:03.798Z,19.52
2023-10-22T10:21:48.182Z,19.45
2023-10-22T10:24:15.311Z,19.39
2023-10-22T10:26:42.652Z,19.41
2023-10-22T10:29:14.716Z,19.41
2023-10-22T10:31:54.005Z,19.49
2023-10-22T10:34:23.124Z,19.58
2023-10-22T10:36:51.192Z,19.59
2023-10-22T10:39:44.213Z,19.57
2023-10-22T10:42:13.889Z,19.59
2023-10-22T10:45:13.630Z,19.57
2023-10-22T10:47:41.321Z,19.56
2023-10-22T10:50:13.604Z,19.56
2023-10-22T10:52:44.032Z,19.67
2023-10-22T10:55:23.135Z,19.88
2023-10-22T10:57:52.101Z,19.96
2023-10-22T11:00:31.781Z,20.01
2023-10-22T11:03:03.302Z,20.08
2023-10-22T11:05:43.901Z,20.12
2023-10-22T11:08:19.488Z,20.22
2023-10-22T11:10:47.277Z,20.24
2023-10-22T11:13:15.147Z,20.19
2023-10-22T11:15:42.826Z,20.06
2023-10-22T11:18:11.807Z,19.99
2023-10-22T11:20:42.433Z,19.94
2023-10-22T11:23:19.455Z,19.92
2023-10-22T11:25:48.009Z,19.90
2023-10-22T11:28:15.655Z,19.83
2023-10-22T11:30:43.520Z,19.86
2023-10-22T11:33:27.535Z,19.90
2023-10-22T11:35:56.761Z,20.03
2023-10-22T11:38:24.466Z,20.18
2023-10-22T11:40:55.533Z,20.25
2023-10-22T11:43:27.632Z,20.31
2023-10-22T11:45:56.840Z,20.31
2023-10-22T11:48:26.023Z,20.31
2023-10-22T11:50:57.590Z,20.28
2023-10-22T11:53:28.705Z,20.33
2023-10-22T11:55:56.011Z,20.33
2023-10-22T11:58:27.285Z,20.28
2023-10-22T12:00:54.637Z,20.26
2023-10-22T12:03:22.259Z,20.26
2023-10-22T12:05:49.744Z,20.31
2023-10-22T12:08:17.126Z,20.25
2023-10-22T12:10:44.836Z,20.24
2023-10-22T12:13:12.112Z,20.26
2023-10-22T12:15:39.897Z,20.25
2023-10-22T12:18:08.645Z,20.17
2023-10-22T12:20:36.137Z,20.19
2023-10-22T12:23:03.990Z,20.08
2023-10-22T12:25:32.588Z,20.01
2023-10-22T12:28:00.176Z,20.02
2023-10-22T12:30:28.234Z,19.92
2023-10-22T12:32:56.070Z,19.91
2023-10-22T12:35:24.479Z,19.93
2023-10-22T12:37:52.546Z,19.93
2023-10-22T12:40:19.997Z,20.01
2023-10-22T12:42:47.223Z,20.11
2023-10-22T12:45:14.593Z,20.36
2023-10-22T12:47:41.875Z,20.45
2023-10-22T12:50:09.794Z,20.45
2023-10-22T12:52:37.497Z,20.42
2023-10-22T12:55:06.375Z,20.45
2023-10-22T12:57:34.550Z,20.46
2023-10-22T13:00:06.153Z,20.39
2023-10-22T13:02:35.528Z,20.41
2023-10-22T13:05:04.358Z,20.40
2023-10-22T13:07:33.231Z,20.47
2023-10-22T13:10:01.147Z,20.44
2023-10-22T13:12:30.542Z,20.42
2023-10-22T13:14:58.383Z,20.41
2023-10-22T13:17:25.456Z,20.32
2023-10-22T13:19:52.638Z,20.26
2023-10-22T13:22:19.814Z,20.31
2023-10-22T13:24:46.991Z,20.25
2023-10-22T13:27:14.384Z,20.18
2023-10-22T13:29:41.864Z,20.28
2023-10-22T13:32:09.116Z,20.33
2023-10-22T13:34:36.479Z,20.40
2023-10-22T13:37:04.451Z,20.52
2023-10-22T13:39:31.566Z,20.57
2023-10-22T13:41:58.779Z,20.49
2023-10-22T13:44:25.854Z,20.49
2023-10-22T13:46:52.955Z,20.48
2023-10-22T13:49:20.208Z,20.55
2023-10-22T13:51:47.516Z,20.66
2023-10-22T13:54:15.040Z,20.67
2023-10-22T13:56:42.323Z,20.71
2023-10-22T13:59:10.221Z,20.61
2023-10-22T14:01:37.687Z,20.51
2023-10-22T14:04:05.403Z,20.39
2023-10-22T14:06:32.748Z,20.36
2023-10-22T14:09:00.092Z,20.26
2023-10-22T14:11:27.552Z,20.16
2023-10-22T14:13:57.961Z,20.13
2023-10-22T14:16:26.639Z,20.20
2023-10-22T14:18:54.548Z,20.31
2023-10-22T14:21:22.946Z,20.39
2023-10-22T14:23:50.228Z,20.40
2023-10-22T14:26:17.539Z,20.41
2023-10-22T14:28:44.937Z,20.36
2023-10-22T14:31:12.394Z,20.35
2023-10-22T14:33:41.211Z,20.34
2023-10-22T14:36:13.666Z,20.29
2023-10-22T14:38:41.069Z,20.24
2023-10-22T14:41:08.376Z,20.39
2023-10-22T14:43:36.564Z,20.50
2023-10-22T14:46:05.096Z,20.47
2023-10-22T14:48:32.722Z,20.46
2023-10-22T14:51:04.276Z,20.39
2023-10-22T14:53:31.543Z,20.29
2023-10-22T14:56:00.447Z,20.31
2023-10-22T14:58:28.631Z,20.22
2023-10-22T15:01:00.734Z,20.18
2023-10-22T15:03:28.166Z,20.09
2023-10-22T15:05:55.875Z,20.06
2023-10-22T15:08:23.220Z,20.01
2023-10-22T15:10:50.616Z,20.00
2023-10-22T15:13:17.793Z,19.99
2023-10-22T15:15:47.296Z,19.94
2023-10-22T15:18:16.274Z,19.86
2023-10-22T15:20:48.158Z,19.84
2023-10-22T15:23:18.927Z,19.76
2023-10-22T15:25:53.387Z,19.75
2023-10-22T15:28:20.584Z,19.66
2023-10-22T15:30:47.934Z,19.56
2023-10-22T15:33:15.947Z,19.50
2023-10-22T15:35:43.193Z,19.50
2023-10-22T15:38:11.522Z,19.48
2023-10-22T15:40:38.801Z,19.48
2023-10-22T15:43:06.081Z,19.42
2023-10-22T15:45:33.485Z,19.37
2023-10-22T15:48:02.568Z,19.36
2023-10-22T15:50:30.527Z,19.35
2023-10-22T15:52:57.833Z,19.35
2023-10-22T15:55:25.323Z,19.31
2023-10-22T15:57:56.425Z,19.27
2023-10-22T16:00:24.185Z,19.17
2023-10-22T16:02:51.923Z,19.17
2023-10-22T16:05:19.468Z,19.13
2023-10-22T16:07:46.760Z,19.08
2023-10-22T16:10:14.923Z,19.04
2023-10-22T16:12:43.516Z,18.98
2023-10-22T16:15:16.673Z,18.93
2023-10-22T16:17:44.153Z,18.85
2023-10-22T16:20:14.147Z,18.81
2023-10-22T16:22:42.137Z,18.70
2023-10-22T16:25:11.142Z,18.65
2023-10-22T16:27:38.485Z,18.63
2023-10-22T16:30:06.455Z,18.62
2023-10-22T16:32:34.265Z,18.59
2023-10-22T16:35:01.538Z,18.59
2023-10-22T16:37:32.240Z,18.53
2023-10-22T16:39:59.913Z,18.50
2023-10-22T16:42:27.358Z,18.48
2023-10-22T16:44:54.912Z,18.45
2023-10-22T16:47:22.195Z,18.43
2023-10-22T16:49:49.431Z,18.42
2023-10-22T16:52:16.540Z,18.40
2023-10-22T16:54:43.824Z,18.37
2023-10-22T16:57:11.271Z,18.32
2023-10-22T16:59:38.752Z,18.19
2023-10-22T17:02:06.850Z,18.13
2023-10-22T17:04:34.529Z,18.05
2023-10-22T17:07:01.685Z,18.07
2023-10-22T17:09:28.823Z,18.03
2023-10-22T17:11:56.168Z,18.08
2023-10-22T17:14:27.189Z,18.06
2023-10-22T17:17:01.774Z,18.02
2023-10-22T17:19:30.202Z,17.96
2023-10-22T17:22:02.483Z,17.96
2023-10-22T17:24:30.047Z,17.92
2023-10-22T17:27:00.397Z,17.87
2023-10-22T17:29:27.630Z,17.79
2023-10-22T17:31:54.762Z,17.70
2023-10-22T17:34:22.096Z,17.58
2023-10-22T17:36:51.314Z,17.57
2023-10-22T17:39:18.581Z,17.62
2023-10-22T17:41:46.685Z,17.65
2023-10-22T17:44:13.817Z,17.69
2023-10-22T17:46:41.058Z,17.65
2023-10-22T17:49:08.541Z,17.57
2023-10-22T17:51:35.897Z,17.53
2023-10-22T17:54:03.278Z,17.49
2023-10-22T17:56:30.410Z,17.49
2023-10-22T17:58:57.936Z,17.45
2023-10-22T18:01:27.830Z,17.47
2023-10-22T18:03:55.302Z,17.47
2023-10-22T18:06:24.228Z,17.51
2023-10-22T18:08:51.459Z,17.52
2023-10-22T18:11:23.480Z,17.49
2023-10-22T18:13:50.849Z,17.46
2023-10-22T18:16:21.456Z,17.46
2023-10-22T18:18:52.454Z,17.47
2023-10-22T18:21:21.908Z,17.42
2023-10-22T18:23:49.298Z,17.37
2023-10-22T18:26:16.982Z,17.30
2023-10-22T18:28:44.376Z,17.19
2023-10-22T18:31:12.074Z,17.20
2023-10-22T18:33:39.417Z,17.22
2023-10-22T18:36:10.381Z,17.25
2023-10-22T18:38:37.762Z,17.25
2023-10-22T18:41:11.577Z,17.24
2023-10-22T18:43:40.604Z,17.09
2023-10-22T18:46:20.930Z,17.08
2023-10-22T18:48:51.073Z,16.95
2023-10-22T18:51:21.034Z,16.84
2023-10-22T18:53:48.946Z,16.88
2023-10-22T18:56:16.659Z,16.88
2023-10-22T18:58:46.176Z,16.90
2023-10-22T19:01:15.911Z,16.90
2023-10-22T19:03:45.065Z,16.81
2023-10-22T19:06:20.575Z,16.78
2023-10-22T19:08:49.393Z,16.78
2023-10-22T19:11:17.311Z,16.76
2023-10-22T19:13:48.185Z,16.77
2023-10-22T19:16:19.620Z,16.82
2023-10-22T19:18:47.346Z,16.74
2023-10-22T19:21:14.869Z,16.72
2023-10-22T19:23:43.603Z,16.63
2023-10-22T19:26:11.604Z,16.56
2023-10-22T19:28:40.621Z,16.46
2023-10-22T19:31:10.784Z,16.32
2023-10-22T19:33:39.720Z,16.25
2023-10-22T19:36:07.859Z,16.32
2023-10-22T19:38:35.330Z,16.36
2023-10-22T19:41:03.831Z,16.34
2023-10-22T19:43:31.241Z,16.36
2023-10-22T19:45:59.357Z,16.41
2023-10-22T19:48:28.148Z,16.39
2023-10-22T19:51:04.291Z,16.38
2023-10-22T19:53:32.698Z,16.32
2023-10-22T19:56:01.688Z,16.28
2023-10-22T19:58:32.981Z,16.15
2023-10-22T20:01:00.656Z,16.09
2023-10-22T20:03:28.482Z,16.05
2023-10-22T20:05:56.125Z,16.09
2023-10-22T20:08:23.600Z,16.15
2023-10-22T20:10:51.165Z,16.23
2023-10-22T20:13:18.567Z,16.13
2023-10-22T20:15:49.950Z,16.11
2023-10-22T20:18:19.815Z,16.12
2023-10-22T20:20:47.224Z,16.09
2023-10-22T20:23:14.625Z,16.08
2023-10-22T20:25:41.908Z,16.11
2023-10-22T20:28:09.292Z,16.16
2023-10-22T20:30:37.315Z,16.13
2023-10-22T20:33:05.779Z,16.12
2023-10-22T20:35:33.658Z,15.98
2023-10-22T20:38:01.797Z,15.84
2023-10-22T20:40:39.158Z,15.74
2023-10-22T20:43:11.943Z,15.69
2023-10-22T20:45:39.247Z,15.70
2023-10-22T20:48:06.568Z,15.72
2023-10-22T20:50:33.951Z,15.75
2023-10-22T20:53:01.418Z,15.78
2023-10-22T20:55:28.866Z,15.73
2023-10-22T20:57:56.214Z,15.59
2023-10-22T21:00:23.648Z,15.48
2023-10-22T21:02:50.838Z,15.45
2023-10-22T21:05:18.183Z,15.41
2023-10-22T21:07:45.347Z,15.44
2023-10-22T21:10:12.550Z,15.54
2023-10-22T21:12:39.854Z,15.54
2023-10-22T21:15:08.000Z,15.40
2023-10-22T21:17:35.272Z,15.27
2023-10-22T21:20:02.479Z,15.18
2023-10-22T21:22:31.267Z,15.16
2023-10-22T21:24:58.617Z,15.14
2023-10-22T21:27:26.401Z,15.14
2023-10-22T21:29:54.128Z,15.18
2023-10-22T21:32:21.384Z,15.12
2023-10-22T21:34:52.788Z,15.01
2023-10-22T21:37:19.997Z,15.06
2023-10-22T21:39:47.486Z,15.16
2023-10-22T21:42:15.699Z,15.27
2023-10-22T21:44:47.220Z,15.17
2023-10-22T21:47:14.533Z,15.03
2023-10-22T21:49:41.699Z,15.02
2023-10-22T21:52:08.931Z,15.11
2023-10-22T21:54:36.355Z,14.98
2023-10-22T21:57:03.885Z,14.88
2023-10-22T21:59:33.885Z,14.84
2023-10-22T22:02:02.702Z,14.76
2023-10-22T22:04:30.200Z,14.72
2023-10-22T22:06:57.557Z,14.81
2023-10-22T22:09:24.703Z,14.92
2023-10-22T22:11:51.953Z,14.94
2023-10-22T22:14:19.350Z,14.97
2023-10-22T22:16:46.447Z,14.95
2023-10-22T22:19:13.579Z,14.95
2023-10-22T22:21:40.778Z,14.85
2023-10-22T22:24:08.183Z,14.79
2023-10-22T22:26:36.870Z,14.72
2023-10-22T22:29:04.008Z,14.81
2023-10-22T22:31:31.325Z,14.86
2023-10-22T22:33:58.471Z,14.97
2023-10-22T22:36:28.133Z,15.00
2023-10-22T22:38:56.868Z,15.06
2023-10-22T22:41:23.957Z,15.02
2023-10-22T22:43:51.032Z,14.94
2023-10-22T22:46:20.086Z,14.95
2023-10-22T22:48:47.322Z,14.95
2023-10-22T22:51:14.338Z,14.97
2023-10-22T22:53:41.402Z,14.99
2023-10-22T22:56:09.147Z,15.00
2023-10-22T22:58:36.200Z,15.01
2023-10-22T23:01:03.578Z,15.05
2023-10-22T23:03:31.908Z,15.02
2023-10-22T23:05:59.188Z,14.88
2023-10-22T23:08:26.252Z,14.78
2023-10-22T23:10:53.414Z,14.83
2023-10-22T23:13:20.495Z,14.81
2023-10-22T23:15:47.663Z,14.88
2023-10-22T23:18:14.881Z,14.51
2023-10-22T23:20:42.118Z,14.47
2023-10-22T23:23:09.172Z,14.41
2023-10-22T23:25:36.258Z,14.48
2023-10-22T23:28:03.725Z,14.56
2023-10-22T23:30:31.601Z,14.68
2023-10-22T23:32:58.980Z,14.73
2023-10-22T23:35:26.174Z,14.56
2023-10-22T23:37:53.160Z,14.44
2023-10-22T23:40:20.376Z,14.47
2023-10-22T23:42:47.524Z,14.51
2023-10-22T23:45:14.945Z,14.47
2023-10-22T23:47:42.081Z,14.43
2023-10-22T23:50:09.322Z,14.45
2023-10-22T23:52:36.506Z,14.51
2023-10-22T23:55:03.967Z,14.58
2023-10-22T23:57:31.356Z,14.51
2023-10-22T23:59:58.395Z,14.38
